Clayhatchee, Alabama
Current Conditions -  °F | °C
As of 6:58 PM on Monday 24 Nov 2014 (Local Time) from KOZR Reporting Station
Few Clouds Few Clouds  
Wind Chill: 69°   Ceiling: Unl
Heat Index: 69°   Visibility: 10mi
Dew Point: 60°   Wind: 5mph
Humidity: 73%   Direction: 190°S
Pressure: 29.92"   Gusts: NA
Location:  31.2347°N, 85.7586°W
Report Text: KOZR 250058Z AUTO 19004KT 10SM FEW170 20/15 A2992 RMK AO2 SLP133 T02040154 RVRNO
Loading
Personal Weather Stations






























Interactive Weather Map New forecast layout! Learn more

10-Day Weather Forecast

Advertisements
Track Severe Weather on mobile